createdAt,value
2018-11-12T05:39:45.300Z,11.57
2018-11-12T05:40:45.447Z,11.50
2018-11-12T05:41:45.596Z,11.49
2018-11-12T05:42:45.744Z,11.53
2018-11-12T05:43:45.893Z,11.57
2018-11-12T05:44:46.057Z,11.67
2018-11-12T05:45:46.199Z,11.67
2018-11-12T05:46:46.344Z,11.74
2018-11-12T05:47:46.494Z,11.67
2018-11-12T05:48:46.645Z,11.77
2018-11-12T05:49:46.794Z,11.70
2018-11-12T05:50:46.945Z,11.80
2018-11-12T05:51:47.094Z,11.82
2018-11-12T05:52:47.244Z,11.89
2018-11-12T05:53:47.396Z,11.82
2018-11-12T05:54:47.543Z,11.80
2018-11-12T05:55:47.693Z,11.78
2018-11-12T05:56:47.846Z,11.80
2018-11-12T05:57:47.994Z,11.75
2018-11-12T05:58:48.165Z,11.71
2018-11-12T05:59:48.286Z,11.64
2018-11-12T06:00:48.436Z,11.56
2018-11-12T06:01:48.581Z,11.59
2018-11-12T06:02:48.731Z,11.44
2018-11-12T06:03:48.882Z,11.47
2018-11-12T06:04:49.086Z,11.59
2018-11-12T06:05:49.182Z,11.59
2018-11-12T06:06:49.332Z,11.64
2018-11-12T06:07:49.483Z,11.57
2018-11-12T06:08:49.636Z,11.57
2018-11-12T06:09:49.787Z,11.49
2018-11-12T06:10:49.939Z,11.52
2018-11-12T06:11:50.089Z,11.46
2018-11-12T06:12:50.239Z,11.46
2018-11-12T06:13:50.386Z,11.46
2018-11-12T06:14:50.537Z,11.54
2018-11-12T06:15:50.687Z,11.57
2018-11-12T06:16:50.838Z,11.61
2018-11-12T06:17:50.986Z,11.59
2018-11-12T06:18:51.135Z,11.57
2018-11-12T06:19:51.287Z,11.46
2018-11-12T06:20:51.439Z,11.57
2018-11-12T06:21:51.585Z,11.64
2018-11-12T06:22:51.805Z,11.70
2018-11-12T06:23:51.887Z,11.74
2018-11-12T06:24:52.036Z,11.70
2018-11-12T06:25:52.187Z,11.72
2018-11-12T06:26:52.337Z,11.72
2018-11-12T06:27:52.488Z,11.77
2018-11-12T06:28:52.640Z,11.77
2018-11-12T06:29:52.791Z,11.75
2018-11-12T06:30:52.938Z,11.82
2018-11-12T06:31:53.089Z,11.83
2018-11-12T06:32:53.237Z,11.87
2018-11-12T06:33:53.391Z,11.96
2018-11-12T06:34:53.537Z,11.96
2018-11-12T06:35:53.688Z,11.94
2018-11-12T06:36:53.871Z,11.96
2018-11-12T06:37:53.991Z,12.01
2018-11-12T06:38:54.141Z,11.96
2018-11-12T06:39:54.287Z,11.99
2018-11-12T06:40:54.439Z,11.99
2018-11-12T06:41:54.591Z,11.94
2018-11-12T06:42:54.800Z,11.83
2018-11-12T06:43:54.890Z,11.78
2018-11-12T06:44:55.042Z,11.85
2018-11-12T06:45:55.191Z,11.87
2018-11-12T06:46:55.403Z,11.89
2018-11-12T06:47:55.496Z,11.89
2018-11-12T06:48:55.646Z,11.94
2018-11-12T06:49:55.797Z,11.87
2018-11-12T06:50:55.947Z,11.78
2018-11-12T06:51:56.099Z,11.82
2018-11-12T06:52:56.277Z,11.82
2018-11-12T06:53:56.408Z,11.86
2018-11-12T06:54:56.552Z,11.94
2018-11-12T06:55:56.701Z,11.90
2018-11-12T06:56:56.851Z,12.02
2018-11-12T06:57:57.003Z,12.02
2018-11-12T06:58:57.152Z,12.06
2018-11-12T06:59:57.302Z,12.04
2018-11-12T07:00:57.585Z,12.05
2018-11-12T07:01:57.602Z,12.08
2018-11-12T07:02:57.751Z,12.12
2018-11-12T07:03:57.904Z,12.09
2018-11-12T07:04:58.055Z,12.04
2018-11-12T07:05:58.204Z,11.87
2018-11-12T07:06:58.388Z,12.01
2018-11-12T07:07:58.502Z,11.87
2018-11-12T07:08:58.655Z,12.02
2018-11-12T07:09:58.803Z,12.05
2018-11-12T07:10:58.953Z,11.96
2018-11-12T07:11:59.103Z,12.02
2018-11-12T07:12:59.260Z,12.02
2018-11-12T07:13:59.407Z,11.99
2018-11-12T07:14:59.555Z,11.87
2018-11-12T07:15:59.711Z,11.93
2018-11-12T07:16:59.857Z,11.99
2018-11-12T07:18:00.010Z,11.90
2018-11-12T07:19:00.215Z,12.01
2018-11-12T07:20:00.308Z,12.01
2018-11-12T07:21:00.458Z,12.19
2018-11-12T07:22:00.608Z,12.11
2018-11-12T07:23:00.761Z,12.08
2018-11-12T07:24:00.910Z,12.09
2018-11-12T07:25:01.079Z,12.11
2018-11-12T07:26:01.213Z,12.04
2018-11-12T07:27:01.363Z,12.11
2018-11-12T07:28:01.515Z,12.09
2018-11-12T07:29:01.665Z,12.12
2018-11-12T07:30:01.816Z,12.16
2018-11-12T07:31:02.018Z,12.37
2018-11-12T07:32:02.117Z,12.42
2018-11-12T07:33:02.268Z,12.46
2018-11-12T07:34:02.419Z,12.37
2018-11-12T07:35:02.567Z,12.30
2018-11-12T07:36:02.719Z,12.38
2018-11-12T07:37:02.868Z,12.39
2018-11-12T07:38:03.016Z,12.45
2018-11-12T07:39:03.168Z,12.49
2018-11-12T07:40:03.320Z,12.59
2018-11-12T07:41:03.466Z,12.57
2018-11-12T07:42:03.678Z,12.60
2018-11-12T07:43:03.787Z,12.66
2018-11-12T07:44:03.935Z,12.64
2018-11-12T07:45:04.086Z,12.52
2018-11-12T07:46:04.236Z,12.59
2018-11-12T07:47:04.385Z,12.63
2018-11-12T07:48:04.535Z,12.60
2018-11-12T07:49:04.688Z,12.56
2018-11-12T07:50:04.839Z,12.62
2018-11-12T07:51:04.993Z,12.57
2018-11-12T07:52:05.142Z,12.57
2018-11-12T07:53:05.291Z,12.59
2018-11-12T07:54:05.439Z,12.49
2018-11-12T07:55:05.594Z,12.39
2018-11-12T07:56:05.792Z,12.52
2018-11-12T07:57:05.895Z,12.54
2018-11-12T07:58:06.048Z,12.42
2018-11-12T07:59:06.199Z,12.46
2018-11-12T08:00:06.351Z,12.51
2018-11-12T08:01:06.500Z,12.57
2018-11-12T08:02:06.648Z,12.60
2018-11-12T08:03:06.815Z,12.60
2018-11-12T08:04:06.951Z,12.62
2018-11-12T08:05:07.103Z,12.62
2018-11-12T08:06:07.265Z,12.63
2018-11-12T08:07:07.406Z,12.70
2018-11-12T08:08:07.556Z,12.57
2018-11-12T08:09:07.768Z,12.46
2018-11-12T08:10:07.862Z,12.56
2018-11-12T08:11:08.012Z,12.57
2018-11-12T08:12:08.159Z,12.52
2018-11-12T08:13:08.311Z,12.64
2018-11-12T08:14:08.461Z,12.59
2018-11-12T08:15:08.614Z,12.46
2018-11-12T08:16:08.762Z,12.54
2018-11-12T08:17:08.912Z,12.54
2018-11-12T08:18:09.069Z,12.67
2018-11-12T08:19:09.219Z,12.60
2018-11-12T08:20:09.370Z,12.59
2018-11-12T08:21:09.523Z,12.63
2018-11-12T08:22:09.674Z,12.59
2018-11-12T08:23:09.826Z,12.62
2018-11-12T08:24:10.070Z,12.71
2018-11-12T08:25:10.128Z,12.62
2018-11-12T08:26:10.276Z,12.60
2018-11-12T08:27:10.467Z,12.49
2018-11-12T08:28:10.580Z,12.62
2018-11-12T08:29:10.728Z,12.69
2018-11-12T08:30:11.008Z,12.67
2018-11-12T08:31:11.035Z,12.71
2018-11-12T08:32:11.182Z,12.64
2018-11-12T08:33:11.356Z,12.57
2018-11-12T08:34:11.484Z,12.44
2018-11-12T08:35:11.635Z,12.38
2018-11-12T08:36:11.811Z,12.41
2018-11-12T08:37:11.943Z,12.38
2018-11-12T08:38:12.092Z,12.45
2018-11-12T08:39:12.282Z,12.51
2018-11-12T08:40:12.419Z,12.48
2018-11-12T08:41:12.625Z,12.41
2018-11-12T08:42:12.695Z,12.41
2018-11-12T08:43:12.846Z,12.49
2018-11-12T08:44:12.998Z,12.52
2018-11-12T08:45:13.149Z,12.57
2018-11-12T08:46:13.400Z,12.62
2018-11-12T08:47:13.449Z,12.71
2018-11-12T08:48:13.599Z,12.71
2018-11-12T08:49:13.843Z,12.74
2018-11-12T08:50:13.906Z,12.70
2018-11-12T08:51:14.054Z,12.77
2018-11-12T08:52:14.243Z,12.82
2018-11-12T08:53:14.356Z,12.79
2018-11-12T08:54:14.506Z,12.93
2018-11-12T08:55:14.699Z,12.92
2018-11-12T08:56:14.810Z,12.92
2018-11-12T08:57:14.963Z,12.99
2018-11-12T08:58:15.874Z,12.96
2018-11-12T08:59:15.304Z,12.92
2018-11-12T09:00:15.412Z,12.85
2018-11-12T09:01:15.562Z,12.92
2018-11-12T09:02:15.713Z,12.88
2018-11-12T09:03:15.866Z,12.88
2018-11-12T09:04:16.060Z,12.95
2018-11-12T09:05:16.170Z,12.88
2018-11-12T09:06:16.318Z,12.92
2018-11-12T09:07:16.889Z,12.85
2018-11-12T09:08:16.619Z,12.92
2018-11-12T09:09:16.832Z,12.95
2018-11-12T09:10:17.056Z,12.93
2018-11-12T09:11:17.075Z,12.95
2018-11-12T09:12:17.226Z,12.95
2018-11-12T09:13:17.376Z,13.00
2018-11-12T09:14:17.526Z,12.95
2018-11-12T09:15:17.678Z,13.03
2018-11-12T09:16:17.828Z,12.88
2018-11-12T09:17:17.981Z,12.96
2018-11-12T09:18:18.130Z,13.04
2018-11-12T09:19:18.284Z,12.93
2018-11-12T09:20:18.424Z,12.93
2018-11-12T09:21:18.606Z,12.92
2018-11-12T09:22:18.756Z,13.03
2018-11-12T09:23:18.910Z,12.95
2018-11-12T09:24:19.114Z,12.97
2018-11-12T09:25:19.209Z,12.84
2018-11-12T09:26:19.362Z,12.82
2018-11-12T09:27:19.516Z,12.79
2018-11-12T09:28:19.663Z,12.88
2018-11-12T09:29:19.832Z,12.84
2018-11-12T09:30:19.971Z,12.84
2018-11-12T09:31:21.289Z,12.84
2018-11-12T09:32:20.273Z,12.84
2018-11-12T09:33:20.424Z,12.82
2018-11-12T09:34:20.576Z,12.79
2018-11-12T09:35:20.733Z,12.71
2018-11-12T09:37:21.049Z,12.89
